createdAt,value
2023-02-11T00:02:09.222Z,103017.41
2023-02-11T00:04:35.593Z,103012.91
2023-02-11T00:07:02.074Z,103015.56
2023-02-11T00:09:30.902Z,103002.19
2023-02-11T00:11:58.133Z,103004.91
2023-02-11T00:14:24.462Z,103010.16
2023-02-11T00:16:50.806Z,103009.28
2023-02-11T00:19:17.179Z,103013.75
2023-02-11T00:21:43.643Z,103004.13
2023-02-11T00:24:10.055Z,102996.13
2023-02-11T00:26:36.544Z,103004.91
2023-02-11T00:29:04.672Z,103002.31
2023-02-11T00:31:31.362Z,103004.91
2023-02-11T00:33:57.846Z,103002.25
2023-02-11T00:36:26.891Z,103003.13
2023-02-11T00:38:54.956Z,103004.84
2023-02-11T00:41:22.123Z,102991.59
2023-02-11T00:43:48.975Z,102999.59
2023-02-11T00:46:17.360Z,102991.59
2023-02-11T00:48:43.811Z,102991.53
2023-02-11T00:51:10.415Z,102989.75
2023-02-11T00:53:37.501Z,102985.34
2023-02-11T00:56:04.442Z,102987.94
2023-02-11T00:58:31.396Z,102997.66
2023-02-11T01:00:57.793Z,102991.41
2023-02-11T01:03:24.839Z,102991.34
2023-02-11T01:05:51.912Z,102993.25
2023-02-11T01:08:18.914Z,102994.91
2023-02-11T01:10:45.343Z,102983.47
2023-02-11T01:13:11.783Z,102989.69
2023-02-11T01:15:38.165Z,102979.88
2023-02-11T01:18:05.922Z,102994.13
2023-02-11T01:20:32.276Z,102990.53
2023-02-11T01:22:58.666Z,102996.72
2023-02-11T01:25:25.043Z,103010.03
2023-02-11T01:27:51.405Z,103021.59
2023-02-11T01:30:17.752Z,103015.34
2023-02-11T01:32:46.061Z,103009.22
2023-02-11T01:35:12.441Z,103003.03
2023-02-11T01:37:38.798Z,102991.41
2023-02-11T01:40:08.470Z,102990.59
2023-02-11T01:42:34.909Z,102990.59
2023-02-11T01:45:21.891Z,102988.75
2023-02-11T01:47:48.289Z,102987.94
2023-02-11T01:50:14.842Z,102991.41
2023-02-11T01:52:42.502Z,102980.84
2023-02-11T01:55:30.829Z,102985.22
2023-02-11T01:58:02.318Z,102978.13
2023-02-11T02:00:36.621Z,102983.44
2023-02-11T02:03:07.911Z,102976.31
2023-02-11T02:05:48.274Z,102984.28
2023-02-11T02:08:14.799Z,102971.88
2023-02-11T02:10:45.678Z,102960.31
2023-02-11T02:13:12.955Z,102953.28
2023-02-11T02:15:44.597Z,102944.44
2023-02-11T02:18:50.970Z,102927.59
2023-02-11T02:21:51.285Z,102939.13
2023-02-11T02:24:41.862Z,102932.00
2023-02-11T02:27:27.724Z,102947.25
2023-02-11T02:30:11.057Z,102948.25
2023-02-11T02:32:54.086Z,102942.09
2023-02-11T02:35:33.229Z,102943.00
2023-02-11T02:38:13.213Z,102949.19
2023-02-11T02:40:51.711Z,102943.00
2023-02-11T02:43:19.164Z,102953.56
2023-02-11T02:45:45.580Z,102952.72
2023-02-11T02:48:33.042Z,102950.06
2023-02-11T02:51:27.179Z,102951.91
2023-02-11T02:54:24.286Z,102936.84
2023-02-11T02:56:55.419Z,102933.19
2023-02-11T02:59:53.852Z,102919.16
2023-02-11T03:02:31.289Z,102908.50
2023-02-11T03:05:06.063Z,102913.81
2023-02-11T03:07:43.901Z,102928.84
2023-02-11T03:10:20.011Z,102930.59
2023-02-11T03:12:48.304Z,102940.34
2023-02-11T03:15:17.097Z,102939.56
2023-02-11T03:17:49.717Z,102941.38
2023-02-11T03:20:18.750Z,102946.63
2023-02-11T03:22:53.762Z,102945.84
2023-02-11T03:25:21.154Z,102949.31
2023-02-11T03:27:53.298Z,102961.75
2023-02-11T03:30:22.623Z,102959.19
2023-02-11T03:32:52.446Z,102960.09
2023-02-11T03:35:25.009Z,102944.19
2023-02-11T03:38:06.642Z,102950.38
2023-02-11T03:40:38.174Z,102944.28
2023-02-11T03:43:10.913Z,102937.28
2023-02-11T03:45:38.327Z,102940.88
2023-02-11T03:48:27.850Z,102939.94
2023-02-11T03:50:55.384Z,102941.75
2023-02-11T03:53:22.897Z,102931.97
2023-02-11T03:55:51.848Z,102937.41
2023-02-11T03:58:18.542Z,102945.44
2023-02-11T04:00:45.082Z,102944.63
2023-02-11T04:03:12.594Z,102926.97
2023-02-11T04:05:39.365Z,102929.75
2023-02-11T04:08:05.938Z,102925.44
2023-02-11T04:10:32.696Z,102930.75
2023-02-11T04:12:59.091Z,102936.06
2023-02-11T04:15:25.579Z,102932.50
2023-02-11T04:17:51.996Z,102934.41
2023-02-11T04:20:18.479Z,102933.41
2023-02-11T04:22:44.833Z,102936.16
2023-02-11T04:25:11.221Z,102945.81
2023-02-11T04:27:37.806Z,102944.09
2023-02-11T04:30:05.982Z,102948.59
2023-02-11T04:32:32.382Z,102947.72
2023-02-11T04:34:58.751Z,102957.41
2023-02-11T04:37:25.143Z,102954.72
2023-02-11T04:39:51.496Z,102950.28
2023-02-11T04:42:17.858Z,102960.03
2023-02-11T04:44:44.269Z,102956.50
2023-02-11T04:47:12.603Z,102950.28
2023-02-11T04:49:39.262Z,102954.72
2023-02-11T04:52:05.821Z,102945.81
2023-02-11T04:54:32.197Z,102944.03
2023-02-11T04:56:58.585Z,102939.66
2023-02-11T04:59:25.047Z,102939.66
2023-02-11T05:01:51.440Z,102945.78
2023-02-11T05:04:18.290Z,102945.88
2023-02-11T05:06:44.863Z,102948.47
2023-02-11T05:09:12.932Z,102956.44
2023-02-11T05:11:39.995Z,102942.28
2023-02-11T05:14:06.955Z,102949.41
2023-02-11T05:16:33.925Z,102941.31
2023-02-11T05:19:00.603Z,102944.91
2023-02-11T05:21:27.010Z,102940.44
2023-02-11T05:23:53.501Z,102936.00
2023-02-11T05:26:19.892Z,102938.59
2023-02-11T05:28:46.428Z,102944.94
2023-02-11T05:31:14.520Z,102949.34
2023-02-11T05:33:41.502Z,102939.59
2023-02-11T05:36:10.384Z,102936.06
2023-02-11T05:38:37.734Z,102929.88
2023-02-11T05:41:05.507Z,102940.47
2023-02-11T05:43:31.904Z,102931.59
2023-02-11T05:45:58.308Z,102926.19
2023-02-11T05:48:24.700Z,102928.03
2023-02-11T05:50:51.084Z,102917.41
2023-02-11T05:53:17.461Z,102916.47
2023-02-11T05:55:43.989Z,102916.41
2023-02-11T05:58:10.380Z,102928.84
2023-02-11T06:00:37.478Z,102927.06
2023-02-11T06:03:04.483Z,102932.50
2023-02-11T06:05:31.464Z,102936.00
2023-02-11T06:07:58.145Z,102938.66
2023-02-11T06:10:24.509Z,102937.69
2023-02-11T06:12:50.883Z,102927.97
2023-02-11T06:15:17.273Z,102926.19
2023-02-11T06:17:43.641Z,102926.25
2023-02-11T06:20:10.927Z,102917.34
2023-02-11T06:22:37.575Z,102928.03
2023-02-11T06:25:04.383Z,102928.03
2023-02-11T06:27:30.837Z,102938.59
2023-02-11T06:29:57.253Z,102924.38
2023-02-11T06:32:42.799Z,102929.66
2023-02-11T06:35:12.096Z,102940.38
2023-02-11T06:37:39.133Z,102942.97
2023-02-11T06:40:06.218Z,102939.41
2023-02-11T06:42:32.716Z,102947.34
2023-02-11T06:44:59.088Z,102942.94
2023-02-11T06:47:25.475Z,102947.38
2023-02-11T06:49:51.888Z,102945.63
2023-02-11T06:52:18.283Z,102936.78
2023-02-11T06:54:44.654Z,102927.06
2023-02-11T06:57:11.089Z,102942.06
2023-02-11T06:59:37.474Z,102947.38
2023-02-11T07:02:03.884Z,102950.94
2023-02-11T07:04:30.299Z,102954.53
2023-02-11T07:06:56.661Z,102950.91
2023-02-11T07:09:23.031Z,102952.69
2023-02-11T07:11:49.397Z,102947.34
2023-02-11T07:14:15.834Z,102950.03
2023-02-11T07:16:42.205Z,102953.69
2023-02-11T07:19:08.580Z,102958.06
2023-02-11T07:21:35.055Z,102949.09
2023-02-11T07:24:02.023Z,102957.09
2023-02-11T07:26:29.089Z,102963.25
2023-02-11T07:28:55.816Z,102964.13
2023-02-11T07:31:26.506Z,102968.56
2023-02-11T07:33:55.069Z,102964.13
2023-02-11T07:36:21.787Z,102961.41
2023-02-11T07:38:48.381Z,102976.34
2023-02-11T07:41:17.954Z,102969.31
2023-02-11T07:43:44.779Z,102966.72
2023-02-11T07:46:13.997Z,102961.28
2023-02-11T07:48:40.478Z,102956.88
2023-02-11T07:51:24.309Z,102954.09
2023-02-11T07:53:52.004Z,102962.06
2023-02-11T07:56:20.358Z,102963.00
2023-02-11T07:58:46.812Z,102961.28
2023-02-11T08:01:17.139Z,102958.56
2023-02-11T08:03:43.594Z,102963.88
2023-02-11T08:06:15.233Z,102968.25
2023-02-11T08:08:42.644Z,102962.00
2023-02-11T08:11:11.093Z,102970.84
2023-02-11T08:13:37.640Z,102982.41
2023-02-11T08:16:04.874Z,102978.03
2023-02-11T08:18:32.251Z,102978.88
2023-02-11T08:21:09.342Z,102990.38
2023-02-11T08:23:36.995Z,102995.69
2023-02-11T08:26:09.162Z,102996.56
2023-02-11T08:28:37.352Z,102997.44
2023-02-11T08:31:08.787Z,102992.03
2023-02-11T08:33:35.814Z,102998.16
2023-02-11T08:36:08.314Z,103004.41
2023-02-11T08:38:34.762Z,103000.88
2023-02-11T08:41:01.172Z,102998.16
2023-02-11T08:43:27.580Z,102998.22
2023-02-11T08:45:54.216Z,103000.84
2023-02-11T08:48:20.692Z,102991.09
2023-02-11T08:50:47.181Z,102992.84
2023-02-11T08:53:13.546Z,102995.41
2023-02-11T08:55:39.901Z,102995.34
2023-02-11T08:58:06.261Z,102998.00
2023-02-11T09:00:32.638Z,103005.00
2023-02-11T09:02:59.056Z,103004.16
2023-02-11T09:05:25.473Z,103003.25
2023-02-11T09:07:51.918Z,103013.91
2023-02-11T09:10:18.903Z,103017.47
2023-02-11T09:12:45.267Z,103021.81
2023-02-11T09:15:11.633Z,103020.00
2023-02-11T09:17:37.988Z,103031.47
2023-02-11T09:20:04.746Z,103027.00
2023-02-11T09:22:31.137Z,103029.66
2023-02-11T09:24:57.516Z,103036.75
2023-02-11T09:27:23.877Z,103037.63
2023-02-11T09:29:50.416Z,103041.06
2023-02-11T09:32:16.903Z,103033.09
2023-02-11T09:34:43.381Z,103038.41
2023-02-11T09:37:09.890Z,103048.19
2023-02-11T09:39:36.309Z,103049.00
2023-02-11T09:42:05.318Z,103052.50
2023-02-11T09:44:34.036Z,103051.66
2023-02-11T09:47:17.351Z,103041.81
2023-02-11T09:49:50.421Z,103056.00
2023-02-11T09:52:40.386Z,103056.78
2023-02-11T09:55:18.588Z,103062.94
2023-02-11T09:57:45.112Z,103065.56
2023-02-11T10:00:23.313Z,103064.75
2023-02-11T10:03:14.733Z,103065.50
2023-02-11T10:06:03.681Z,103059.28
2023-02-11T10:08:58.992Z,103060.94
2023-02-11T10:11:36.489Z,103056.47
2023-02-11T10:14:27.910Z,103064.41
2023-02-11T10:17:25.206Z,103063.47
2023-02-11T10:19:57.762Z,103067.84
2023-02-11T10:22:37.480Z,103068.66
2023-02-11T10:25:21.668Z,103080.22
2023-02-11T10:27:49.564Z,103073.97
2023-02-11T10:30:26.418Z,103081.88
2023-02-11T10:33:25.397Z,103088.84
2023-02-11T10:35:51.802Z,103088.91
2023-02-11T10:38:18.372Z,103084.38
2023-02-11T10:40:45.718Z,103084.38
2023-02-11T10:43:15.279Z,103078.03
2023-02-11T10:45:50.687Z,103083.44
2023-02-11T10:48:51.704Z,103098.50
2023-02-11T10:51:23.775Z,103100.28
2023-02-11T10:54:05.344Z,103108.22
2023-02-11T10:56:41.026Z,103116.09
2023-02-11T10:59:14.350Z,103111.63
2023-02-11T11:01:46.127Z,103120.59
2023-02-11T11:04:34.132Z,103116.03
2023-02-11T11:07:22.782Z,103122.38
2023-02-11T11:09:59.479Z,103113.53
2023-02-11T11:12:25.804Z,103114.47
2023-02-11T11:14:55.914Z,103117.19
2023-02-11T11:17:22.346Z,103113.59
2023-02-11T11:19:48.713Z,103121.38
2023-02-11T11:22:22.485Z,103117.91
2023-02-11T11:24:55.148Z,103126.63
2023-02-11T11:27:24.400Z,103126.72
2023-02-11T11:29:55.201Z,103120.59
2023-02-11T11:32:29.648Z,103130.28
2023-02-11T11:35:00.735Z,103125.78
2023-02-11T11:37:34.076Z,103122.22
2023-02-11T11:40:07.791Z,103107.03
2023-02-11T11:42:36.816Z,103101.63
2023-02-11T11:45:26.628Z,103101.69
2023-02-11T11:48:03.097Z,103102.53
2023-02-11T11:50:44.032Z,103104.13
2023-02-11T11:53:31.471Z,103092.66
2023-02-11T11:56:12.906Z,103096.13
2023-02-11T11:58:39.459Z,103097.00
2023-02-11T12:01:14.986Z,103097.00
2023-02-11T12:04:10.870Z,103095.25
2023-02-11T12:06:55.849Z,103106.59
2023-02-11T12:09:39.068Z,103113.59
2023-02-11T12:12:26.690Z,103109.19
2023-02-11T12:15:20.354Z,103097.69
2023-02-11T12:17:55.970Z,103102.16
2023-02-11T12:20:31.334Z,103098.63
2023-02-11T12:23:35.369Z,103090.66
2023-02-11T12:26:12.392Z,103102.06
2023-02-11T12:28:53.992Z,103095.75
2023-02-11T12:31:35.272Z,103096.56
2023-02-11T12:34:26.573Z,103092.09
2023-02-11T12:37:20.047Z,103091.22
2023-02-11T12:39:51.126Z,103090.22
2023-02-11T12:42:55.130Z,103090.13
2023-02-11T12:46:00.622Z,103087.25
2023-02-11T12:48:43.409Z,103079.25
2023-02-11T12:51:19.632Z,103074.94
2023-02-11T12:54:21.273Z,103070.50
2023-02-11T12:57:14.969Z,103071.31
2023-02-11T12:59:51.941Z,103077.34
2023-02-11T13:03:00.823Z,103073.84
2023-02-11T13:05:46.179Z,103080.72
2023-02-11T13:08:49.929Z,103076.22
2023-02-11T13:11:34.704Z,103077.09
2023-02-11T13:14:06.419Z,103078.69
2023-02-11T13:16:38.250Z,103076.03
2023-02-11T13:19:13.502Z,103082.03
2023-02-11T13:21:48.159Z,103076.66
2023-02-11T13:24:37.616Z,103088.09
2023-02-11T13:27:11.449Z,103079.25
2023-02-11T13:30:13.795Z,103083.84
2023-02-11T13:33:04.680Z,103071.34
2023-02-11T13:35:40.168Z,103076.78
2023-02-11T13:38:19.141Z,103083.94
2023-02-11T13:40:59.541Z,103075.06
2023-02-11T13:43:30.559Z,103078.56
2023-02-11T13:46:21.668Z,103067.16
2023-02-11T13:48:52.481Z,103072.50
2023-02-11T13:51:35.329Z,103078.84
2023-02-11T13:54:03.180Z,103071.75
2023-02-11T13:56:34.041Z,103072.38
2023-02-11T13:59:04.025Z,103068.84
2023-02-11T14:02:23.024Z,103061.66
2023-02-11T14:05:23.246Z,103064.31
2023-02-11T14:08:29.834Z,103064.72
2023-02-11T14:10:57.661Z,103058.16
2023-02-11T14:13:37.321Z,103065.97
2023-02-11T14:16:17.102Z,103059.59
2023-02-11T14:18:46.734Z,103063.06
2023-02-11T14:21:22.857Z,103062.88
2023-02-11T14:23:53.186Z,103065.22
2023-02-11T14:26:20.086Z,103064.34
2023-02-11T14:29:16.020Z,103061.69
2023-02-11T14:32:05.348Z,103065.31
2023-02-11T14:35:02.200Z,103063.59
2023-02-11T14:38:00.582Z,103062.63
2023-02-11T14:40:33.011Z,103061.91
2023-02-11T14:43:24.302Z,103060.13
2023-02-11T14:45:54.822Z,103067.47
2023-02-11T14:48:29.770Z,103066.38
2023-02-11T14:51:06.644Z,103072.59
2023-02-11T14:53:34.269Z,103073.53
2023-02-11T14:56:00.711Z,103080.63
2023-02-11T14:58:29.971Z,103074.28
2023-02-11T15:01:01.247Z,103077.84
2023-02-11T15:03:35.309Z,103068.97
2023-02-11T15:06:16.539Z,103065.28
2023-02-11T15:08:47.176Z,103070.66
2023-02-11T15:11:17.789Z,103064.28
2023-02-11T15:13:47.430Z,103065.28
2023-02-11T15:16:18.434Z,103061.81
2023-02-11T15:18:48.381Z,103060.97
2023-02-11T15:21:24.557Z,103062.88
2023-02-11T15:24:05.970Z,103077.06
2023-02-11T15:26:33.122Z,103077.81
2023-02-11T15:29:00.124Z,103080.50
2023-02-11T15:31:28.357Z,103087.72
2023-02-11T15:33:55.142Z,103096.56
2023-02-11T15:36:28.422Z,103089.63
2023-02-11T15:39:17.325Z,103084.28
2023-02-11T15:41:44.515Z,103088.59
2023-02-11T15:44:31.242Z,103089.69
2023-02-11T15:46:58.404Z,103093.97
2023-02-11T15:49:26.122Z,103097.72
2023-02-11T15:51:56.797Z,103104.84
2023-02-11T15:54:27.439Z,103100.38
2023-02-11T15:57:01.602Z,103098.56
2023-02-11T15:59:38.761Z,103099.53
2023-02-11T16:02:09.458Z,103101.44
2023-02-11T16:04:36.323Z,103095.22
2023-02-11T16:07:03.008Z,103095.97
2023-02-11T16:09:34.959Z,103100.50
2023-02-11T16:12:18.644Z,103101.41
2023-02-11T16:14:45.077Z,103103.91
2023-02-11T16:17:25.085Z,103111.13
2023-02-11T16:19:53.517Z,103108.38
2023-02-11T16:22:24.894Z,103106.59
2023-02-11T16:24:54.002Z,103122.69
2023-02-11T16:27:39.586Z,103132.63
2023-02-11T16:30:21.722Z,103125.47
2023-02-11T16:32:48.091Z,103127.44
2023-02-11T16:35:14.436Z,103123.78
2023-02-11T16:37:40.768Z,103134.56
2023-02-11T16:40:07.949Z,103128.31
2023-02-11T16:42:34.303Z,103134.69
2023-02-11T16:45:00.723Z,103136.59
2023-02-11T16:47:28.318Z,103142.81
2023-02-11T16:49:56.028Z,103142.03
2023-02-11T16:52:23.078Z,103147.31
2023-02-11T16:54:51.353Z,103142.03
2023-02-11T16:57:21.101Z,103142.94
2023-02-11T16:59:48.007Z,103148.25
2023-02-11T17:02:32.742Z,103147.47
2023-02-11T17:05:01.726Z,103143.94
2023-02-11T17:07:28.772Z,103139.41
2023-02-11T17:09:56.037Z,103143.91
2023-02-11T17:12:25.242Z,103147.47
2023-02-11T17:14:52.274Z,103145.56
2023-02-11T17:17:18.663Z,103157.13
2023-02-11T17:19:45.023Z,103158.84
2023-02-11T17:22:11.904Z,103161.59
2023-02-11T17:24:38.238Z,103157.13
2023-02-11T17:27:04.700Z,103160.72
2023-02-11T17:29:31.140Z,103150.94
2023-02-11T17:31:57.540Z,103147.38
2023-02-11T17:34:24.123Z,103152.81
2023-02-11T17:36:50.695Z,103159.09
2023-02-11T17:39:17.079Z,103159.13
2023-02-11T17:41:43.467Z,103158.16
2023-02-11T17:44:12.067Z,103157.41
2023-02-11T17:46:38.420Z,103160.00
2023-02-11T17:49:04.851Z,103167.22
2023-02-11T17:51:33.930Z,103176.97
2023-02-11T17:54:03.536Z,103172.53
2023-02-11T17:56:33.107Z,103187.59
2023-02-11T17:58:59.552Z,103186.75
2023-02-11T18:01:30.953Z,103195.66
2023-02-11T18:03:57.680Z,103194.75
2023-02-11T18:06:24.476Z,103203.84
2023-02-11T18:08:50.907Z,103209.09
2023-02-11T18:11:17.693Z,103200.38
2023-02-11T18:13:45.247Z,103203.94
2023-02-11T18:16:15.666Z,103210.22
2023-02-11T18:18:43.361Z,103205.59
2023-02-11T18:21:15.505Z,103206.66
2023-02-11T18:23:42.727Z,103210.13
2023-02-11T18:26:10.904Z,103209.22
2023-02-11T18:28:38.300Z,103208.31
2023-02-11T18:31:05.823Z,103215.44
2023-02-11T18:33:32.846Z,103218.00
2023-02-11T18:35:59.201Z,103207.44
2023-02-11T18:38:25.574Z,103214.56
2023-02-11T18:40:52.337Z,103210.03
2023-02-11T18:43:19.846Z,103220.59
2023-02-11T18:45:47.890Z,103218.91
2023-02-11T18:48:15.277Z,103223.34
2023-02-11T18:50:44.378Z,103224.31
2023-02-11T18:53:12.853Z,103229.66
2023-02-11T18:55:40.811Z,103227.91
2023-02-11T18:58:07.225Z,103227.78
2023-02-11T19:00:34.660Z,103228.88
2023-02-11T19:03:01.277Z,103234.16
2023-02-11T19:05:29.799Z,103228.81
2023-02-11T19:07:56.455Z,103228.72
2023-02-11T19:10:23.797Z,103231.56
2023-02-11T19:12:53.630Z,103242.22
2023-02-11T19:15:19.987Z,103239.63
2023-02-11T19:17:46.306Z,103242.13
2023-02-11T19:20:12.678Z,103244.03
2023-02-11T19:22:39.006Z,103250.28
2023-02-11T19:25:05.775Z,103244.91
2023-02-11T19:27:32.188Z,103246.69
2023-02-11T19:29:58.582Z,103251.16
2023-02-11T19:32:24.991Z,103253.81
2023-02-11T19:34:52.048Z,103265.47
2023-02-11T19:37:18.600Z,103259.19
2023-02-11T19:39:45.253Z,103267.31
2023-02-11T19:42:12.452Z,103276.19
2023-02-11T19:44:38.944Z,103276.16
2023-02-11T19:47:06.766Z,103274.41
2023-02-11T19:49:33.641Z,103273.53
2023-02-11T19:52:00.054Z,103274.41
2023-02-11T19:54:28.951Z,103282.50
2023-02-11T19:56:55.671Z,103278.00
2023-02-11T19:59:22.024Z,103288.59
2023-02-11T20:01:48.980Z,103288.75
2023-02-11T20:04:18.231Z,103288.66
2023-02-11T20:06:45.220Z,103288.66
2023-02-11T20:09:14.394Z,103285.13
2023-02-11T20:11:41.484Z,103287.03
2023-02-11T20:14:10.405Z,103290.56
2023-02-11T20:16:47.972Z,103292.19
2023-02-11T20:19:21.138Z,103290.56
2023-02-11T20:21:50.771Z,103287.03
2023-02-11T20:24:18.723Z,103282.72
2023-02-11T20:26:47.954Z,103288.88
2023-02-11T20:29:15.959Z,103288.03
2023-02-11T20:31:43.011Z,103291.53
2023-02-11T20:34:10.741Z,103294.19
2023-02-11T20:36:38.622Z,103297.63
2023-02-11T20:39:05.874Z,103305.69
2023-02-11T20:41:34.533Z,103303.13
2023-02-11T20:44:03.882Z,103309.38
2023-02-11T20:46:33.118Z,103315.53
2023-02-11T20:48:59.936Z,103318.25
2023-02-11T20:51:30.384Z,103325.25
2023-02-11T20:53:57.498Z,103320.78
2023-02-11T20:56:29.865Z,103331.59
2023-02-11T20:58:58.172Z,103335.13
2023-02-11T21:01:27.941Z,103331.53
2023-02-11T21:03:57.566Z,103336.84
2023-02-11T21:06:30.282Z,103343.06
2023-02-11T21:08:57.428Z,103344.00
2023-02-11T21:11:24.051Z,103342.19
2023-02-11T21:13:51.046Z,103337.88
2023-02-11T21:16:22.516Z,103337.88
2023-02-11T21:18:50.224Z,103338.75
2023-02-11T21:21:18.790Z,103335.22
2023-02-11T21:23:45.636Z,103330.81
2023-02-11T21:26:12.494Z,103332.63
2023-02-11T21:28:40.956Z,103336.22
2023-02-11T21:31:07.815Z,103332.75
2023-02-11T21:33:34.568Z,103337.16
2023-02-11T21:36:04.529Z,103330.09
2023-02-11T21:38:31.232Z,103338.19
2023-02-11T21:41:03.848Z,103345.22
2023-02-11T21:43:30.189Z,103339.97
2023-02-11T21:45:57.107Z,103346.25
2023-02-11T21:48:25.540Z,103346.25
2023-02-11T21:50:52.866Z,103345.25
2023-02-11T21:53:19.656Z,103341.72
2023-02-11T21:55:45.972Z,103342.56
2023-02-11T21:58:13.284Z,103339.03
2023-02-11T22:00:40.231Z,103341.72
2023-02-11T22:03:06.681Z,103339.13
2023-02-11T22:05:33.052Z,103345.28
2023-02-11T22:07:59.440Z,103336.38
2023-02-11T22:10:25.781Z,103341.75
2023-02-11T22:12:52.098Z,103348.81
2023-02-11T22:15:18.503Z,103355.00
2023-02-11T22:17:44.965Z,103352.34
2023-02-11T22:20:11.681Z,103350.56
2023-02-11T22:22:38.003Z,103349.75
2023-02-11T22:25:04.586Z,103348.84
2023-02-11T22:27:30.939Z,103348.84
2023-02-11T22:29:57.291Z,103348.84
2023-02-11T22:32:23.941Z,103353.31
2023-02-11T22:34:53.104Z,103354.97
2023-02-11T22:37:19.719Z,103356.03
2023-02-11T22:39:46.277Z,103351.47
2023-02-11T22:42:12.612Z,103359.50
2023-02-11T22:44:38.981Z,103355.09
2023-02-11T22:47:05.370Z,103352.53
2023-02-11T22:49:33.065Z,103364.03
2023-02-11T22:51:59.698Z,103358.69
2023-02-11T22:54:26.174Z,103369.31
2023-02-11T22:56:53.182Z,103369.34
2023-02-11T22:59:20.706Z,103363.91
2023-02-11T23:01:47.443Z,103369.28
2023-02-11T23:04:16.899Z,103374.63
2023-02-11T23:06:43.904Z,103379.97
2023-02-11T23:09:12.189Z,103379.03
2023-02-11T23:11:39.246Z,103380.81
2023-02-11T23:14:08.020Z,103383.50
2023-02-11T23:16:34.698Z,103386.16
2023-02-11T23:19:05.469Z,103395.16
2023-02-11T23:21:35.166Z,103389.81
2023-02-11T23:24:05.720Z,103388.00
2023-02-11T23:26:32.391Z,103390.69
2023-02-11T23:28:59.748Z,103396.84
2023-02-11T23:31:37.385Z,103398.63
2023-02-11T23:34:04.215Z,103398.69
2023-02-11T23:36:30.653Z,103392.44
2023-02-11T23:38:57.071Z,103396.97
2023-02-11T23:41:24.457Z,103401.44
2023-02-11T23:43:52.743Z,103404.16
2023-02-11T23:46:21.675Z,103413.09
2023-02-11T23:48:49.494Z,103407.63
2023-02-11T23:51:15.969Z,103416.56
2023-02-11T23:53:42.443Z,103412.03
2023-02-11T23:56:11.070Z,103409.41
2023-02-11T23:58:37.460Z,103407.56
